createdAt,value
2018-11-21T00:01:35.100Z,91.15
2018-11-21T00:04:04.309Z,91.15
2018-11-21T00:06:33.510Z,91.15
2018-11-21T00:09:02.799Z,91.15
2018-11-21T00:11:31.914Z,91.15
2018-11-21T00:14:01.521Z,91.15
2018-11-21T00:16:30.935Z,91.15
2018-11-21T00:19:00.773Z,91.15
2018-11-21T00:21:29.642Z,91.15
2018-11-21T00:23:58.941Z,91.15
2018-11-21T00:26:28.263Z,91.15
2018-11-21T00:28:57.503Z,91.15
2018-11-21T00:31:26.704Z,91.15
2018-11-21T00:33:55.956Z,91.15
2018-11-21T00:36:25.063Z,91.15
2018-11-21T00:38:54.378Z,91.15
2018-11-21T00:41:24.509Z,91.15
2018-11-21T00:43:53.714Z,91.15
2018-11-21T00:46:22.928Z,91.15
2018-11-21T00:48:52.178Z,91.15
2018-11-21T00:51:21.378Z,91.15
2018-11-21T00:53:50.479Z,91.15
2018-11-21T00:56:19.593Z,91.15
2018-11-21T00:58:48.744Z,91.15
2018-11-21T01:01:17.943Z,91.15
2018-11-21T01:03:47.226Z,91.15
2018-11-21T01:06:16.674Z,91.15
2018-11-21T01:08:45.842Z,91.15
2018-11-21T01:11:15.141Z,91.15
2018-11-21T01:13:45.054Z,91.15
2018-11-21T01:16:14.236Z,91.15
2018-11-21T01:18:44.489Z,91.15
2018-11-21T01:21:13.721Z,91.15
2018-11-21T01:23:42.818Z,91.15
2018-11-21T01:26:12.073Z,91.15
2018-11-21T01:28:41.214Z,91.15
2018-11-21T01:31:10.374Z,91.15
2018-11-21T01:33:39.515Z,91.15
2018-11-21T01:36:08.674Z,91.15
2018-11-21T01:38:37.747Z,91.15
2018-11-21T01:41:07.087Z,91.15
2018-11-21T01:43:36.218Z,91.15
2018-11-21T01:46:05.403Z,91.15
2018-11-21T01:48:34.696Z,91.15
2018-11-21T01:51:03.895Z,91.15
2018-11-21T01:53:33.193Z,91.15
2018-11-21T01:56:02.434Z,91.15
2018-11-21T01:58:32.755Z,91.15
2018-11-21T02:01:02.004Z,91.15
2018-11-21T02:03:32.176Z,91.15
2018-11-21T02:06:01.533Z,91.15
2018-11-21T02:08:30.990Z,91.15
2018-11-21T02:11:00.608Z,91.15
2018-11-21T02:13:30.005Z,91.15
2018-11-21T02:15:59.462Z,91.15
2018-11-21T02:18:28.741Z,90.81
2018-11-21T02:20:57.874Z,90.81
2018-11-21T02:23:26.325Z,100.00
2018-11-21T02:25:55.558Z,90.84
2018-11-21T02:28:23.937Z,100.00
2018-11-21T02:30:53.143Z,91.06
2018-11-21T02:33:22.463Z,91.06
2018-11-21T02:35:51.571Z,91.06
2018-11-21T02:38:20.018Z,100.00
2018-11-21T02:40:49.156Z,91.29
2018-11-21T02:43:17.589Z,100.00
2018-11-21T02:45:46.780Z,91.49
2018-11-21T02:48:16.367Z,91.49
2018-11-21T02:50:44.746Z,100.00
2018-11-21T02:53:15.808Z,91.73
2018-11-21T02:55:45.374Z,91.73
2018-11-21T02:58:14.512Z,91.73
2018-11-21T03:00:43.660Z,92.45
2018-11-21T03:03:12.827Z,92.45
2018-11-21T03:05:41.969Z,92.45
2018-11-21T03:08:11.197Z,92.45
2018-11-21T03:10:40.347Z,92.45
2018-11-21T03:13:09.532Z,92.45
2018-11-21T03:15:38.790Z,92.45
2018-11-21T03:18:07.951Z,92.45
2018-11-21T03:20:37.169Z,92.45
2018-11-21T03:23:06.346Z,92.45
2018-11-21T03:25:35.440Z,92.45
2018-11-21T03:28:04.860Z,92.45
2018-11-21T03:30:34.034Z,92.45
2018-11-21T03:33:03.288Z,92.45
2018-11-21T03:35:32.484Z,92.45
2018-11-21T03:38:01.762Z,92.45
2018-11-21T03:40:31.154Z,92.45
2018-11-21T03:43:00.372Z,92.45
2018-11-21T03:45:29.741Z,92.45
2018-11-21T03:47:59.085Z,92.45
2018-11-21T03:50:28.283Z,92.45
2018-11-21T03:52:57.661Z,92.45
2018-11-21T03:55:26.887Z,92.45
2018-11-21T03:57:56.081Z,92.45
2018-11-21T04:00:25.314Z,92.45
2018-11-21T04:02:54.515Z,92.45
2018-11-21T04:05:23.738Z,92.45
2018-11-21T04:07:53.244Z,92.45
2018-11-21T04:10:22.401Z,92.45
2018-11-21T04:12:51.676Z,92.45
2018-11-21T04:15:20.904Z,92.45
2018-11-21T04:17:50.296Z,92.45
2018-11-21T04:20:19.537Z,92.45
2018-11-21T04:22:48.714Z,92.45
2018-11-21T04:25:17.943Z,92.45
2018-11-21T04:27:47.158Z,92.45
2018-11-21T04:30:16.795Z,92.45
2018-11-21T04:32:46.197Z,92.45
2018-11-21T04:35:15.458Z,92.45
2018-11-21T04:37:44.683Z,92.45
2018-11-21T04:40:14.108Z,92.45
2018-11-21T04:42:43.615Z,92.45
2018-11-21T04:45:12.653Z,92.45
2018-11-21T04:47:41.822Z,92.45
2018-11-21T04:50:11.095Z,92.45
2018-11-21T04:52:40.322Z,92.45
2018-11-21T04:55:09.863Z,92.45
2018-11-21T04:57:39.104Z,92.45
2018-11-21T05:00:09.630Z,92.45
2018-11-21T05:02:40.011Z,92.45
2018-11-21T05:05:10.394Z,92.45
2018-11-21T05:07:39.669Z,92.45
2018-11-21T05:10:09.335Z,92.45
2018-11-21T05:12:38.939Z,92.45
2018-11-21T05:15:08.555Z,92.45
2018-11-21T05:17:38.039Z,92.45
2018-11-21T05:20:08.388Z,92.45
2018-11-21T05:22:37.832Z,92.45
2018-11-21T05:25:07.967Z,92.45
2018-11-21T05:27:37.177Z,92.45
2018-11-21T05:30:09.473Z,92.45
2018-11-21T05:32:38.903Z,92.45
2018-11-21T05:35:09.626Z,92.45
2018-11-21T05:37:38.888Z,92.45
2018-11-21T05:40:09.291Z,92.45
2018-11-21T05:42:38.457Z,92.45
2018-11-21T05:45:08.801Z,92.45
2018-11-21T05:47:38.190Z,92.45
2018-11-21T05:50:09.695Z,92.45
2018-11-21T05:52:38.957Z,92.45
2018-11-21T05:55:08.288Z,92.45
2018-11-21T05:57:38.066Z,92.45
2018-11-21T06:00:09.613Z,92.45
2018-11-21T06:02:39.410Z,92.45
2018-11-21T06:05:09.261Z,92.45
2018-11-21T06:07:38.529Z,92.45
2018-11-21T06:10:12.437Z,92.45
2018-11-21T06:12:42.116Z,92.45
2018-11-21T06:15:11.901Z,92.45
2018-11-21T06:17:41.137Z,92.45
2018-11-21T06:20:12.213Z,92.45
2018-11-21T06:22:41.443Z,92.45
2018-11-21T06:25:11.355Z,92.45
2018-11-21T06:27:41.628Z,92.45
2018-11-21T06:30:12.747Z,92.45
2018-11-21T06:32:42.165Z,92.45
2018-11-21T06:35:12.158Z,92.45
2018-11-21T06:37:41.330Z,92.45
2018-11-21T06:40:13.374Z,92.45
2018-11-21T06:42:56.230Z,92.45
2018-11-21T06:45:26.919Z,92.45
2018-11-21T06:47:55.580Z,100.00
2018-11-21T06:50:24.777Z,100.00
2018-11-21T06:52:54.458Z,100.00
2018-11-21T06:55:23.611Z,100.00
2018-11-21T06:57:52.120Z,100.00
2018-11-21T07:00:21.264Z,100.00
2018-11-21T07:02:49.824Z,100.00
2018-11-21T07:05:19.022Z,100.00
2018-11-21T07:07:47.590Z,100.00
2018-11-21T07:10:17.455Z,100.00
2018-11-21T07:12:46.077Z,100.00
2018-11-21T07:15:14.655Z,100.00
2018-11-21T07:17:43.171Z,100.00
2018-11-21T07:20:12.902Z,100.00
2018-11-21T07:22:41.809Z,99.97
2018-11-21T07:25:15.904Z,99.97
2018-11-21T07:27:44.754Z,99.84
2018-11-21T07:30:14.575Z,99.79
2018-11-21T07:32:42.976Z,99.60
2018-11-21T07:35:14.657Z,99.40
2018-11-21T07:37:41.103Z,99.39
2018-11-21T07:40:11.301Z,99.24
2018-11-21T07:42:39.894Z,98.95
2018-11-21T07:45:12.970Z,98.98
2018-11-21T07:47:42.212Z,99.02
2018-11-21T07:50:17.337Z,99.03
2018-11-21T07:52:45.877Z,99.04
2018-11-21T07:55:14.692Z,99.04
2018-11-21T07:57:50.624Z,98.96
2018-11-21T08:00:59.271Z,99.02
2018-11-21T08:03:50.506Z,99.19
2018-11-21T08:06:47.225Z,99.31
2018-11-21T08:09:33.682Z,99.32
2018-11-21T08:12:20.630Z,99.32
2018-11-21T08:15:20.522Z,99.81
2018-11-21T08:18:01.812Z,99.81
2018-11-21T08:20:55.279Z,100.00
2018-11-21T08:23:42.351Z,100.00
2018-11-21T08:26:41.825Z,100.00
2018-11-21T08:29:10.345Z,100.00
2018-11-21T08:31:38.739Z,100.00
2018-11-21T08:34:07.128Z,100.00
2018-11-21T08:36:35.724Z,100.00
2018-11-21T08:39:06.675Z,100.00
2018-11-21T08:41:35.451Z,100.00
2018-11-21T08:44:04.000Z,100.00
2018-11-21T08:46:32.433Z,100.00
2018-11-21T08:49:02.284Z,100.00
2018-11-21T08:51:30.795Z,100.00
2018-11-21T08:53:59.574Z,100.00
2018-11-21T08:56:28.008Z,100.00
2018-11-21T08:58:56.503Z,100.00
2018-11-21T09:01:25.012Z,100.00
2018-11-21T09:03:53.457Z,100.00
2018-11-21T09:06:21.938Z,100.00
2018-11-21T09:08:50.351Z,100.00
2018-11-21T09:11:18.892Z,100.00
2018-11-21T09:13:53.234Z,100.00
2018-11-21T09:16:20.374Z,100.00
2018-11-21T09:18:48.967Z,100.00
2018-11-21T09:21:17.513Z,100.00
2018-11-21T09:23:45.862Z,100.00
2018-11-21T09:26:14.490Z,100.00
2018-11-21T09:28:42.942Z,100.00
2018-11-21T09:31:11.603Z,100.00
2018-11-21T09:33:40.035Z,100.00
2018-11-21T09:36:08.501Z,100.00
2018-11-21T09:38:36.948Z,100.00
2018-11-21T09:41:05.929Z,100.00
2018-11-21T09:43:34.458Z,100.00
2018-11-21T09:46:02.931Z,100.00
2018-11-21T09:48:31.606Z,100.00
2018-11-21T09:51:00.157Z,100.00
2018-11-21T09:53:28.690Z,100.00
2018-11-21T09:55:57.085Z,100.00
2018-11-21T09:58:25.660Z,100.00
2018-11-21T10:01:31.012Z,100.00
2018-11-21T10:04:00.908Z,100.00
2018-11-21T10:06:30.509Z,100.00
2018-11-21T10:09:00.775Z,100.00
2018-11-21T10:11:31.381Z,99.99
2018-11-21T10:13:59.822Z,99.74
2018-11-21T10:16:28.330Z,99.64
2018-11-21T10:18:57.919Z,99.80
2018-11-21T10:21:28.117Z,99.72
2018-11-21T10:23:56.863Z,99.65
2018-11-21T10:26:25.518Z,100.00
2018-11-21T10:28:54.672Z,99.84
2018-11-21T10:31:23.104Z,99.55
2018-11-21T10:33:52.639Z,98.75
2018-11-21T10:36:21.053Z,98.75
2018-11-21T10:38:49.683Z,98.16
2018-11-21T10:41:18.122Z,98.04
2018-11-21T10:43:46.659Z,97.87
2018-11-21T10:46:15.393Z,97.69
2018-11-21T10:48:44.161Z,97.55
2018-11-21T10:51:13.903Z,97.02
2018-11-21T10:53:41.038Z,96.77
2018-11-21T10:56:09.477Z,96.73
2018-11-21T10:58:38.171Z,97.01
2018-11-21T11:01:25.500Z,97.01
2018-11-21T11:03:59.871Z,96.85
2018-11-21T11:06:46.351Z,96.95
2018-11-21T11:09:32.558Z,96.72
2018-11-21T11:12:29.701Z,96.70
2018-11-21T11:15:17.359Z,97.10
2018-11-21T11:18:07.813Z,97.10
2018-11-21T11:21:13.596Z,96.73
2018-11-21T11:24:06.812Z,96.80
2018-11-21T11:26:53.383Z,96.69
2018-11-21T11:29:56.027Z,96.68
2018-11-21T11:32:44.726Z,96.19
2018-11-21T11:35:31.071Z,95.83
2018-11-21T11:38:18.870Z,95.83
2018-11-21T11:41:05.182Z,95.74
2018-11-21T11:44:11.093Z,95.84
2018-11-21T11:46:57.872Z,95.64
2018-11-21T11:49:43.894Z,95.90
2018-11-21T11:52:37.522Z,95.90
2018-11-21T11:55:35.296Z,95.72
2018-11-21T11:58:21.461Z,95.79
2018-11-21T12:00:59.368Z,96.10
2018-11-21T12:03:45.836Z,95.56
2018-11-21T12:06:34.147Z,95.47
2018-11-21T12:09:20.409Z,95.29
2018-11-21T12:12:07.145Z,95.29
2018-11-21T12:14:53.433Z,95.54
2018-11-21T12:17:39.801Z,95.67
2018-11-21T12:20:27.683Z,95.67
2018-11-21T12:23:18.068Z,95.82
2018-11-21T12:26:17.619Z,94.95
2018-11-21T12:29:07.924Z,94.95
2018-11-21T12:31:55.381Z,94.86
2018-11-21T12:34:36.503Z,94.78
2018-11-21T12:37:22.986Z,95.14
2018-11-21T12:40:19.483Z,95.15
2018-11-21T12:43:05.784Z,95.15
2018-11-21T12:46:07.499Z,95.58
2018-11-21T12:48:54.952Z,95.58
2018-11-21T12:51:35.108Z,95.85
2018-11-21T12:54:31.986Z,96.01
2018-11-21T12:57:18.083Z,96.71
2018-11-21T13:00:11.493Z,96.71
2018-11-21T13:03:14.715Z,97.51
2018-11-21T13:06:00.956Z,98.65
2018-11-21T13:08:51.397Z,99.25
2018-11-21T13:11:54.353Z,99.25
2018-11-21T13:14:57.257Z,100.00
2018-11-21T13:17:43.478Z,100.00
2018-11-21T13:20:30.023Z,100.00
2018-11-21T13:23:29.676Z,100.00
2018-11-21T13:26:12.702Z,99.63
2018-11-21T13:29:00.061Z,99.63
2018-11-21T13:31:47.565Z,98.85
2018-11-21T13:34:39.394Z,97.32
2018-11-21T13:37:45.246Z,97.26
2018-11-21T13:40:36.259Z,97.26
2018-11-21T13:43:38.695Z,96.78
2018-11-21T13:46:29.081Z,96.37
2018-11-21T13:49:31.886Z,96.09
2018-11-21T13:52:22.069Z,96.36
2018-11-21T13:54:54.677Z,95.55
2018-11-21T13:57:23.173Z,95.04
2018-11-21T13:59:51.640Z,94.51
2018-11-21T14:02:21.290Z,94.26
2018-11-21T14:04:54.350Z,94.46
2018-11-21T14:07:22.907Z,94.33
2018-11-21T14:09:51.701Z,93.91
2018-11-21T14:12:20.069Z,93.77
2018-11-21T14:14:48.620Z,92.82
2018-11-21T14:17:17.024Z,93.57
2018-11-21T14:19:45.631Z,93.57
2018-11-21T14:22:14.261Z,93.39
2018-11-21T14:24:42.701Z,93.48
2018-11-21T14:27:12.101Z,93.42
2018-11-21T14:29:40.541Z,93.16
2018-11-21T14:32:08.968Z,93.25
2018-11-21T14:34:37.402Z,93.67
2018-11-21T14:37:05.939Z,93.67
2018-11-21T14:39:34.571Z,93.23
2018-11-21T14:42:03.119Z,93.28
2018-11-21T14:44:31.582Z,93.27
2018-11-21T14:47:00.712Z,93.54
2018-11-21T14:49:29.260Z,93.54
2018-11-21T14:51:57.748Z,93.32
2018-11-21T14:54:26.189Z,92.86
2018-11-21T14:56:54.564Z,92.86
2018-11-21T14:59:22.995Z,93.02
2018-11-21T15:01:51.421Z,92.53
2018-11-21T15:04:21.083Z,92.24
2018-11-21T15:06:49.546Z,92.60
2018-11-21T15:09:18.014Z,92.60
2018-11-21T15:11:46.684Z,92.49
2018-11-21T15:14:15.302Z,92.23
2018-11-21T15:16:43.945Z,92.51
2018-11-21T15:19:12.338Z,92.83
2018-11-21T15:21:40.877Z,92.67
2018-11-21T15:24:09.354Z,92.29
2018-11-21T15:26:37.912Z,92.22
2018-11-21T15:29:06.493Z,92.42
2018-11-21T15:31:34.956Z,91.60
2018-11-21T15:34:03.361Z,91.74
2018-11-21T15:36:31.896Z,91.64
2018-11-21T15:39:00.399Z,91.59
2018-11-21T15:41:29.864Z,91.74
2018-11-21T15:43:58.519Z,91.82
2018-11-21T15:46:29.076Z,92.17
2018-11-21T15:48:57.558Z,92.17
2018-11-21T15:51:26.192Z,92.63
2018-11-21T15:53:54.652Z,92.92
2018-11-21T15:56:23.086Z,93.19
2018-11-21T15:58:51.541Z,94.04
2018-11-21T16:01:20.012Z,94.04
2018-11-21T16:03:48.735Z,94.45
2018-11-21T16:06:17.599Z,94.92
2018-11-21T16:08:46.117Z,95.54
2018-11-21T16:11:14.768Z,96.21
2018-11-21T16:13:43.175Z,96.92
2018-11-21T16:16:11.609Z,97.72
2018-11-21T16:18:40.155Z,98.39
2018-11-21T16:21:09.186Z,98.98
2018-11-21T16:23:37.835Z,100.00
2018-11-21T16:26:06.279Z,100.00
2018-11-21T16:28:34.849Z,100.00
2018-11-21T16:31:03.306Z,100.00
2018-11-21T16:33:32.004Z,100.00
2018-11-21T16:36:00.450Z,100.00
2018-11-21T16:38:29.094Z,100.00
2018-11-21T16:40:57.636Z,100.00
2018-11-21T16:43:26.130Z,100.00
2018-11-21T16:45:56.334Z,100.00
2018-11-21T16:48:24.915Z,100.00
2018-11-21T16:50:53.571Z,100.00
2018-11-21T16:53:22.107Z,100.00
2018-11-21T16:55:50.632Z,100.00
2018-11-21T16:58:19.194Z,100.00
2018-11-21T17:00:47.742Z,100.00
2018-11-21T17:03:16.519Z,100.00
2018-11-21T17:05:45.070Z,100.00
2018-11-21T17:08:13.508Z,100.00
2018-11-21T17:10:42.073Z,100.00
2018-11-21T17:13:10.495Z,100.00
2018-11-21T17:15:39.043Z,100.00
2018-11-21T17:18:07.504Z,100.00
2018-11-21T17:20:40.715Z,100.00
2018-11-21T17:23:09.250Z,100.00
2018-11-21T17:25:38.755Z,100.00
2018-11-21T17:28:07.333Z,100.00
2018-11-21T17:30:38.368Z,100.00
2018-11-21T17:33:06.864Z,100.00
2018-11-21T17:35:35.291Z,100.00
2018-11-21T17:38:03.698Z,100.00
2018-11-21T17:40:37.609Z,100.00
2018-11-21T17:43:06.505Z,100.00
2018-11-21T17:45:34.933Z,100.00
2018-11-21T17:48:03.812Z,100.00
2018-11-21T17:50:32.335Z,100.00
2018-11-21T17:53:02.494Z,100.00
2018-11-21T17:55:32.202Z,99.62
2018-11-21T17:58:00.732Z,99.01
2018-11-21T18:00:30.643Z,98.66
2018-11-21T18:02:59.404Z,97.98
2018-11-21T18:05:29.767Z,97.25
2018-11-21T18:07:58.274Z,96.92
2018-11-21T18:10:28.534Z,96.98
2018-11-21T18:12:56.970Z,96.61
2018-11-21T18:15:25.486Z,96.41
2018-11-21T18:17:54.987Z,96.08
2018-11-21T18:20:23.658Z,95.98
2018-11-21T18:22:52.522Z,95.53
2018-11-21T18:25:29.136Z,95.53
2018-11-21T18:27:57.603Z,95.39
2018-11-21T18:30:26.492Z,95.48
2018-11-21T18:32:54.998Z,95.26
2018-11-21T18:35:24.296Z,94.70
2018-11-21T18:37:53.018Z,94.32
2018-11-21T18:40:23.011Z,94.32
2018-11-21T18:42:51.461Z,94.17
2018-11-21T18:45:22.495Z,94.28
2018-11-21T18:47:51.205Z,94.37
2018-11-21T18:50:20.320Z,93.94
2018-11-21T18:52:49.955Z,93.81
2018-11-21T18:55:22.641Z,93.81
2018-11-21T18:58:17.436Z,93.78
2018-11-21T19:00:48.424Z,93.53
2018-11-21T19:03:17.969Z,93.76
2018-11-21T19:05:46.463Z,93.63
2018-11-21T19:08:15.041Z,93.50
2018-11-21T19:10:43.530Z,93.21
2018-11-21T19:13:12.202Z,93.34
2018-11-21T19:15:40.766Z,93.22
2018-11-21T19:18:09.220Z,92.90
2018-11-21T19:20:37.724Z,92.67
2018-11-21T19:23:06.261Z,92.68
2018-11-21T19:25:54.073Z,92.56
2018-11-21T19:28:25.500Z,92.70
2018-11-21T19:30:53.998Z,92.57
2018-11-21T19:33:22.614Z,92.67
2018-11-21T19:35:51.124Z,92.78
2018-11-21T19:38:20.101Z,92.79
2018-11-21T19:40:48.141Z,92.91
2018-11-21T19:43:16.777Z,92.65
2018-11-21T19:45:45.223Z,92.67
2018-11-21T19:48:13.720Z,92.71
2018-11-21T19:50:42.241Z,92.71
2018-11-21T19:53:10.697Z,92.57
2018-11-21T19:55:39.194Z,92.84
2018-11-21T19:58:07.937Z,92.57
2018-11-21T20:00:37.274Z,92.39
2018-11-21T20:03:06.520Z,92.52
2018-11-21T20:05:35.138Z,92.64
2018-11-21T20:08:03.640Z,92.87
2018-11-21T20:10:34.215Z,92.89
2018-11-21T20:13:02.721Z,92.68
2018-11-21T20:15:31.184Z,92.50
2018-11-21T20:18:01.091Z,92.59
2018-11-21T20:20:29.562Z,92.46
2018-11-21T20:22:58.282Z,92.53
2018-11-21T20:25:27.128Z,92.63
2018-11-21T20:27:55.836Z,92.43
2018-11-21T20:30:26.053Z,92.39
2018-11-21T20:32:54.693Z,92.45
2018-11-21T20:35:23.221Z,92.49
2018-11-21T20:37:51.996Z,91.89
2018-11-21T20:40:28.304Z,91.93
2018-11-21T20:42:56.778Z,91.87
2018-11-21T20:45:26.634Z,91.79
2018-11-21T20:47:55.896Z,91.60
2018-11-21T20:50:25.325Z,91.72
2018-11-21T20:52:53.766Z,91.76
2018-11-21T20:55:23.779Z,91.81
2018-11-21T20:57:52.169Z,91.82
2018-11-21T21:00:22.218Z,91.79
2018-11-21T21:02:50.687Z,91.81
2018-11-21T21:05:20.829Z,91.86
2018-11-21T21:07:49.319Z,92.28
2018-11-21T21:10:19.033Z,91.85
2018-11-21T21:12:47.572Z,91.83
2018-11-21T21:15:15.995Z,91.83
2018-11-21T21:17:45.434Z,91.68
2018-11-21T21:20:15.769Z,91.67
2018-11-21T21:22:44.894Z,91.72
2018-11-21T21:25:17.987Z,91.72
2018-11-21T21:27:46.633Z,91.82
2018-11-21T21:30:22.836Z,91.67
2018-11-21T21:32:51.273Z,91.57
2018-11-21T21:35:20.468Z,91.39
2018-11-21T21:37:48.954Z,91.31
2018-11-21T21:40:20.370Z,91.34
2018-11-21T21:42:47.319Z,91.43
2018-11-21T21:45:17.491Z,91.49
2018-11-21T21:47:45.903Z,91.50
2018-11-21T21:50:15.576Z,91.25
2018-11-21T21:52:44.071Z,91.25
2018-11-21T21:55:13.421Z,91.37
2018-11-21T21:57:41.928Z,91.43
2018-11-21T22:00:12.954Z,91.27
2018-11-21T22:02:41.354Z,91.41
2018-11-21T22:05:10.655Z,91.37
2018-11-21T22:07:39.096Z,91.12
2018-11-21T22:10:09.007Z,91.12
2018-11-21T22:12:37.604Z,91.37
2018-11-21T22:15:15.745Z,91.45
2018-11-21T22:17:44.212Z,91.28
2018-11-21T22:20:12.627Z,91.24
2018-11-21T22:22:41.192Z,91.26
2018-11-21T22:25:10.020Z,91.29
2018-11-21T22:27:38.384Z,91.20
2018-11-21T22:30:08.875Z,91.64
2018-11-21T22:32:38.491Z,91.64
2018-11-21T22:35:08.206Z,91.67
2018-11-21T22:37:38.080Z,91.60
2018-11-21T22:40:07.525Z,91.45
2018-11-21T22:42:35.888Z,91.53
2018-11-21T22:45:04.375Z,91.53
2018-11-21T22:47:32.917Z,91.55
2018-11-21T22:50:01.457Z,91.75
2018-11-21T22:52:30.274Z,91.87
2018-11-21T22:54:58.791Z,92.08
2018-11-21T22:57:27.219Z,91.69
2018-11-21T22:59:55.738Z,91.90
2018-11-21T23:02:24.153Z,91.95
2018-11-21T23:04:52.660Z,92.07
2018-11-21T23:07:21.234Z,91.71
2018-11-21T23:09:49.724Z,91.71
2018-11-21T23:12:18.197Z,91.73
2018-11-21T23:14:49.429Z,92.41
2018-11-21T23:17:17.816Z,92.41
2018-11-21T23:19:46.257Z,92.36
2018-11-21T23:22:14.711Z,92.19
2018-11-21T23:24:43.179Z,92.28
2018-11-21T23:27:11.579Z,92.18
2018-11-21T23:29:40.014Z,92.18
2018-11-21T23:32:08.496Z,91.95
2018-11-21T23:34:37.208Z,92.16
2018-11-21T23:37:05.821Z,92.16
2018-11-21T23:39:35.246Z,92.10
2018-11-21T23:42:03.740Z,92.08
2018-11-21T23:44:32.325Z,91.94
2018-11-21T23:47:00.997Z,91.97
2018-11-21T23:49:29.599Z,91.97
2018-11-21T23:51:58.103Z,92.31
2018-11-21T23:54:26.589Z,92.31
2018-11-21T23:57:15.725Z,92.17
2018-11-21T23:59:23.618Z,92.22
